createdAt,value
2023-09-10T00:00:10.811Z,18.13
2023-09-10T00:02:37.448Z,18.08
2023-09-10T00:05:04.148Z,18.08
2023-09-10T00:07:30.618Z,18.05
2023-09-10T00:09:57.122Z,18.05
2023-09-10T00:12:23.543Z,18.06
2023-09-10T00:14:49.955Z,18.01
2023-09-10T00:17:16.515Z,18.00
2023-09-10T00:19:43.023Z,17.99
2023-09-10T00:22:09.435Z,18.00
2023-09-10T00:24:35.949Z,18.01
2023-09-10T00:27:02.594Z,17.95
2023-09-10T00:29:29.025Z,17.87
2023-09-10T00:31:55.571Z,17.86
2023-09-10T00:34:22.075Z,17.87
2023-09-10T00:36:52.277Z,17.90
2023-09-10T00:39:20.967Z,17.91
2023-09-10T00:41:47.726Z,17.91
2023-09-10T00:44:14.247Z,17.85
2023-09-10T00:46:40.823Z,17.77
2023-09-10T00:49:07.279Z,17.71
2023-09-10T00:51:33.914Z,17.71
2023-09-10T00:54:00.733Z,17.75
2023-09-10T00:56:27.179Z,17.75
2023-09-10T00:58:54.624Z,17.76
2023-09-10T01:01:21.982Z,17.76
2023-09-10T01:03:48.394Z,17.76
2023-09-10T01:06:14.886Z,17.74
2023-09-10T01:08:41.696Z,17.68
2023-09-10T01:11:32.740Z,17.60
2023-09-10T01:14:11.696Z,17.56
2023-09-10T01:16:51.767Z,17.54
2023-09-10T01:19:52.493Z,17.49
2023-09-10T01:22:46.768Z,17.42
2023-09-10T01:25:14.706Z,17.42
2023-09-10T01:27:41.333Z,17.46
2023-09-10T01:30:10.553Z,17.49
2023-09-10T01:32:44.587Z,17.51
2023-09-10T01:35:34.712Z,17.52
2023-09-10T01:38:10.977Z,17.53
2023-09-10T01:41:03.196Z,17.52
2023-09-10T01:43:32.305Z,17.53
2023-09-10T01:45:58.826Z,17.51
2023-09-10T01:48:27.704Z,17.49
2023-09-10T01:50:55.305Z,17.43
2023-09-10T01:53:21.702Z,17.33
2023-09-10T01:55:48.307Z,17.30
2023-09-10T01:58:14.722Z,17.32
2023-09-10T02:00:41.186Z,17.29
2023-09-10T02:03:08.104Z,17.28
2023-09-10T02:05:34.688Z,17.30
2023-09-10T02:08:01.081Z,17.31
2023-09-10T02:10:29.150Z,17.31
2023-09-10T02:12:55.611Z,17.34
2023-09-10T02:15:22.035Z,17.35
2023-09-10T02:17:48.543Z,17.37
2023-09-10T02:20:15.121Z,17.38
2023-09-10T02:22:41.746Z,17.33
2023-09-10T02:25:09.156Z,17.25
2023-09-10T02:27:36.431Z,17.16
2023-09-10T02:30:06.813Z,17.18
2023-09-10T02:32:33.712Z,17.19
2023-09-10T02:35:00.423Z,17.16
2023-09-10T02:37:26.863Z,17.12
2023-09-10T02:39:53.235Z,17.10
2023-09-10T02:42:19.626Z,17.11
2023-09-10T02:44:46.148Z,17.13
2023-09-10T02:47:12.561Z,17.15
2023-09-10T02:49:39.087Z,17.15
2023-09-10T02:52:05.618Z,17.15
2023-09-10T02:54:37.284Z,17.13
2023-09-10T02:57:03.891Z,17.11
2023-09-10T02:59:30.304Z,17.05
2023-09-10T03:01:56.913Z,17.02
2023-09-10T03:04:23.385Z,17.04
2023-09-10T03:06:51.069Z,17.08
2023-09-10T03:09:17.897Z,17.11
2023-09-10T03:11:47.503Z,17.12
2023-09-10T03:14:14.173Z,17.09
2023-09-10T03:16:40.726Z,17.05
2023-09-10T03:19:07.668Z,17.00
2023-09-10T03:21:37.436Z,16.97
2023-09-10T03:24:04.060Z,16.89
2023-09-10T03:26:30.457Z,16.88
2023-09-10T03:28:56.939Z,16.88
2023-09-10T03:31:23.573Z,16.85
2023-09-10T03:33:50.033Z,16.83
2023-09-10T03:36:16.456Z,16.84
2023-09-10T03:38:42.876Z,16.86
2023-09-10T03:41:09.323Z,16.88
2023-09-10T03:43:36.116Z,16.91
2023-09-10T03:46:02.568Z,16.92
2023-09-10T03:48:29.036Z,16.94
2023-09-10T03:50:55.484Z,16.95
2023-09-10T03:53:21.883Z,16.95
2023-09-10T03:55:48.344Z,16.96
2023-09-10T03:58:14.834Z,16.95
2023-09-10T04:00:41.394Z,16.93
2023-09-10T04:03:07.932Z,16.92
2023-09-10T04:05:34.463Z,16.92
2023-09-10T04:08:00.971Z,16.90
2023-09-10T04:10:28.315Z,16.89
2023-09-10T04:12:54.794Z,16.89
2023-09-10T04:15:21.180Z,16.90
2023-09-10T04:17:47.679Z,16.91
2023-09-10T04:20:14.650Z,16.86
2023-09-10T04:22:41.094Z,16.85
2023-09-10T04:25:07.898Z,16.85
2023-09-10T04:27:34.704Z,16.85
2023-09-10T04:30:01.121Z,16.85
2023-09-10T04:32:27.569Z,16.85
2023-09-10T04:34:54.044Z,16.83
2023-09-10T04:37:20.481Z,16.81
2023-09-10T04:39:47.100Z,16.73
2023-09-10T04:42:13.526Z,16.64
2023-09-10T04:44:39.876Z,16.60
2023-09-10T04:47:06.278Z,16.59
2023-09-10T04:49:32.649Z,16.61
2023-09-10T04:51:59.011Z,16.62
2023-09-10T04:54:25.407Z,16.63
2023-09-10T04:56:56.011Z,16.64
2023-09-10T04:59:23.752Z,16.64
2023-09-10T05:01:50.304Z,16.62
2023-09-10T05:04:16.972Z,16.64
2023-09-10T05:06:43.429Z,16.62
2023-09-10T05:09:09.926Z,16.57
2023-09-10T05:11:36.277Z,16.56
2023-09-10T05:14:03.400Z,16.59
2023-09-10T05:16:30.892Z,16.62
2023-09-10T05:18:57.444Z,16.63
2023-09-10T05:21:23.843Z,16.65
2023-09-10T05:23:50.341Z,16.67
2023-09-10T05:26:17.130Z,16.73
2023-09-10T05:28:46.604Z,16.77
2023-09-10T05:31:13.645Z,16.78
2023-09-10T05:36:07.000Z,16.78
2023-09-10T05:38:33.458Z,16.84
2023-09-10T05:41:04.511Z,16.86
2023-09-10T05:43:31.573Z,16.89
2023-09-10T05:45:58.986Z,16.92
2023-09-10T05:48:25.553Z,16.96
2023-09-10T05:50:59.056Z,17.01
2023-09-10T05:53:25.730Z,17.08
2023-09-10T05:55:52.229Z,17.14
2023-09-10T05:58:20.206Z,17.21
2023-09-10T06:00:46.885Z,17.28
2023-09-10T06:03:13.377Z,17.34
2023-09-10T06:05:39.884Z,17.39
2023-09-10T06:08:06.616Z,17.42
2023-09-10T06:10:33.001Z,17.47
2023-09-10T06:12:59.413Z,17.53
2023-09-10T06:15:25.791Z,17.58
2023-09-10T06:17:52.289Z,17.62
2023-09-10T06:20:18.733Z,17.69
2023-09-10T06:22:45.246Z,17.83
2023-09-10T06:25:11.616Z,18.27
2023-09-10T06:27:38.128Z,18.58
2023-09-10T06:30:05.172Z,18.54
2023-09-10T06:32:31.703Z,18.54
2023-09-10T06:34:58.209Z,18.59
2023-09-10T06:37:25.237Z,18.69
2023-09-10T06:39:51.646Z,19.09
2023-09-10T06:42:18.104Z,19.86
2023-09-10T06:44:44.742Z,22.22
2023-09-10T06:47:11.718Z,24.32
2023-09-10T06:49:40.154Z,25.72
2023-09-10T06:52:09.886Z,26.92
2023-09-10T06:54:36.290Z,27.88
2023-09-10T06:57:02.830Z,28.79
2023-09-10T06:59:29.482Z,29.69
2023-09-10T07:01:56.161Z,30.48
2023-09-10T07:04:24.289Z,31.14
2023-09-10T07:06:52.512Z,31.69
2023-09-10T07:09:23.533Z,32.30
2023-09-10T07:11:54.546Z,32.53
2023-09-10T07:14:22.177Z,32.63
2023-09-10T07:16:49.501Z,32.82
2023-09-10T07:19:16.308Z,32.47
2023-09-10T07:21:42.703Z,32.03
2023-09-10T07:24:10.568Z,31.36
2023-09-10T07:26:37.864Z,31.46
2023-09-10T07:29:08.215Z,31.53
2023-09-10T07:31:35.815Z,32.11
2023-09-10T07:34:03.126Z,31.14
2023-09-10T07:36:30.064Z,30.67
2023-09-10T07:38:56.428Z,30.33
2023-09-10T07:41:23.318Z,29.52
2023-09-10T07:43:49.845Z,28.89
2023-09-10T07:46:16.627Z,28.71
2023-09-10T07:48:43.108Z,28.80
2023-09-10T07:51:09.515Z,29.63
2023-09-10T07:53:35.944Z,29.90
2023-09-10T07:56:02.911Z,28.80
2023-09-10T07:58:29.452Z,28.19
2023-09-10T08:00:57.960Z,27.74
2023-09-10T08:03:25.029Z,27.41
2023-09-10T08:05:51.594Z,27.13
2023-09-10T08:08:18.107Z,26.91
2023-09-10T08:10:46.473Z,26.74
2023-09-10T08:13:13.628Z,26.55
2023-09-10T08:15:43.756Z,26.47
2023-09-10T08:18:12.646Z,26.52
2023-09-10T08:20:40.760Z,26.48
2023-09-10T08:23:08.164Z,26.38
2023-09-10T08:25:35.119Z,26.37
2023-09-10T08:28:01.580Z,26.38
2023-09-10T08:30:28.773Z,26.39
2023-09-10T08:32:55.408Z,26.70
2023-09-10T08:35:23.734Z,26.85
2023-09-10T08:37:50.436Z,26.80
2023-09-10T08:40:17.701Z,26.63
2023-09-10T08:42:59.124Z,27.03
2023-09-10T08:45:25.649Z,27.34
2023-09-10T08:47:55.782Z,27.32
2023-09-10T08:50:23.377Z,27.22
2023-09-10T08:52:50.386Z,27.15
2023-09-10T08:55:17.002Z,27.03
2023-09-10T08:57:46.622Z,26.97
2023-09-10T09:00:14.015Z,26.95
2023-09-10T09:02:42.272Z,26.97
2023-09-10T09:05:09.433Z,27.01
2023-09-10T09:07:44.139Z,27.00
2023-09-10T09:10:15.253Z,27.03
2023-09-10T09:12:43.001Z,27.12
2023-09-10T09:15:10.285Z,27.23
2023-09-10T09:17:39.822Z,27.24
2023-09-10T09:20:12.123Z,27.30
2023-09-10T09:22:44.243Z,27.31
2023-09-10T09:25:11.332Z,27.33
2023-09-10T09:27:38.842Z,27.38
2023-09-10T09:30:09.029Z,27.45
2023-09-10T09:32:40.280Z,27.43
2023-09-10T09:35:10.471Z,27.51
2023-09-10T09:37:37.583Z,27.50
2023-09-10T09:40:05.204Z,27.52
2023-09-10T09:42:31.680Z,27.53
2023-09-10T09:45:01.330Z,27.58
2023-09-10T09:47:27.963Z,27.56
2023-09-10T09:49:57.658Z,27.62
2023-09-10T09:52:24.167Z,27.75
2023-09-10T09:54:50.585Z,27.86
2023-09-10T09:57:17.907Z,27.82
2023-09-10T09:59:45.154Z,27.90
2023-09-10T10:02:16.303Z,27.95
2023-09-10T10:04:46.213Z,28.00
2023-09-10T10:07:23.229Z,28.10
2023-09-10T10:09:51.730Z,28.25
2023-09-10T10:12:18.457Z,28.33
2023-09-10T10:14:45.725Z,28.37
2023-09-10T10:17:12.688Z,28.36
2023-09-10T10:19:40.679Z,28.33
2023-09-10T10:22:08.235Z,28.39
2023-09-10T10:24:35.970Z,28.41
2023-09-10T10:27:02.815Z,28.52
2023-09-10T10:29:29.518Z,28.64
2023-09-10T10:32:03.181Z,28.69
2023-09-10T10:34:38.578Z,28.81
2023-09-10T10:37:10.999Z,28.89
2023-09-10T10:40:17.737Z,29.02
2023-09-10T10:43:08.884Z,29.07
2023-09-10T10:45:36.287Z,29.13
2023-09-10T10:48:10.142Z,29.16
2023-09-10T10:50:39.708Z,29.22
2023-09-10T10:53:18.607Z,29.29
2023-09-10T10:55:46.663Z,29.41
2023-09-10T10:58:13.730Z,29.50
2023-09-10T11:00:40.117Z,29.57
2023-09-10T11:03:14.833Z,29.75
2023-09-10T11:05:53.898Z,29.87
2023-09-10T11:08:30.952Z,29.92
2023-09-10T11:10:58.465Z,29.97
2023-09-10T11:13:26.085Z,30.08
2023-09-10T11:16:05.164Z,30.18
2023-09-10T11:18:37.738Z,30.17
2023-09-10T11:21:13.698Z,30.17
2023-09-10T11:24:02.351Z,30.33
2023-09-10T11:26:30.147Z,30.36
2023-09-10T11:29:01.163Z,30.34
2023-09-10T11:31:40.078Z,30.39
2023-09-10T11:34:15.957Z,30.47
2023-09-10T11:36:56.423Z,30.53
2023-09-10T11:39:23.573Z,30.63
2023-09-10T11:41:54.597Z,30.85
2023-09-10T11:44:21.254Z,30.93
2023-09-10T11:46:48.086Z,30.95
2023-09-10T11:49:15.616Z,31.03
2023-09-10T11:51:43.039Z,31.13
2023-09-10T11:54:09.903Z,31.25
2023-09-10T11:56:36.380Z,31.37
2023-09-10T11:59:03.592Z,31.41
2023-09-10T12:01:32.352Z,31.39
2023-09-10T12:03:58.731Z,31.34
2023-09-10T12:06:25.252Z,31.21
2023-09-10T12:08:51.615Z,31.08
2023-09-10T12:11:20.317Z,31.17
2023-09-10T12:13:47.019Z,31.24
2023-09-10T12:16:14.369Z,31.34
2023-09-10T12:18:41.868Z,31.42
2023-09-10T12:21:13.276Z,31.57
2023-09-10T12:23:40.059Z,31.64
2023-09-10T12:26:08.573Z,31.68
2023-09-10T12:28:35.108Z,31.67
2023-09-10T12:31:01.753Z,31.76
2023-09-10T12:33:29.156Z,31.82
2023-09-10T12:35:57.177Z,32.00
2023-09-10T12:38:23.719Z,32.10
2023-09-10T12:40:53.525Z,32.14
2023-09-10T12:43:20.868Z,32.15
2023-09-10T12:45:48.186Z,32.18
2023-09-10T12:48:18.930Z,32.27
2023-09-10T12:50:46.312Z,32.34
2023-09-10T12:53:13.114Z,32.32
2023-09-10T12:55:40.060Z,32.36
2023-09-10T12:58:08.802Z,32.37
2023-09-10T13:00:35.216Z,32.35
2023-09-10T13:03:01.637Z,32.43
2023-09-10T13:05:28.324Z,32.49
2023-09-10T13:07:54.841Z,32.49
2023-09-10T13:10:21.332Z,32.59
2023-09-10T13:12:47.793Z,32.59
2023-09-10T13:15:19.520Z,32.62
2023-09-10T13:17:46.077Z,32.55
2023-09-10T13:20:12.690Z,32.60
2023-09-10T13:22:39.239Z,32.64
2023-09-10T13:25:06.182Z,32.59
2023-09-10T13:27:32.603Z,32.55
2023-09-10T13:29:59.032Z,32.58
2023-09-10T13:32:25.550Z,32.57
2023-09-10T13:34:52.071Z,32.57
2023-09-10T13:37:18.585Z,32.58
2023-09-10T13:39:44.987Z,32.56
2023-09-10T13:42:12.597Z,32.55
2023-09-10T13:44:38.988Z,32.57
2023-09-10T13:47:05.439Z,32.53
2023-09-10T13:49:31.922Z,32.51
2023-09-10T13:51:58.391Z,32.50
2023-09-10T13:54:24.746Z,32.57
2023-09-10T13:56:51.247Z,32.59
2023-09-10T13:59:17.769Z,32.60
2023-09-10T14:01:45.390Z,32.57
2023-09-10T14:04:12.833Z,32.64
2023-09-10T14:06:39.806Z,32.62
2023-09-10T14:09:06.505Z,32.62
2023-09-10T14:11:32.992Z,32.50
2023-09-10T14:13:59.507Z,32.48
2023-09-10T14:16:26.326Z,32.48
2023-09-10T14:18:52.805Z,32.40
2023-09-10T14:21:21.076Z,32.33
2023-09-10T14:23:47.510Z,32.27
2023-09-10T14:26:13.975Z,32.21
2023-09-10T14:28:40.706Z,32.11
2023-09-10T14:31:07.485Z,32.06
2023-09-10T14:33:33.932Z,32.05
2023-09-10T14:36:00.802Z,31.99
2023-09-10T14:38:27.551Z,31.95
2023-09-10T14:40:54.075Z,31.89
2023-09-10T14:43:20.545Z,31.91
2023-09-10T14:45:47.117Z,31.90
2023-09-10T14:48:13.994Z,31.85
2023-09-10T14:50:40.511Z,31.83
2023-09-10T14:53:06.978Z,31.78
2023-09-10T14:55:33.461Z,31.77
2023-09-10T14:57:59.876Z,31.74
2023-09-10T15:00:26.360Z,31.74
2023-09-10T15:02:52.829Z,31.78
2023-09-10T15:05:19.380Z,31.70
2023-09-10T15:07:45.909Z,31.67
2023-09-10T15:10:13.059Z,31.59
2023-09-10T15:12:39.443Z,31.53
2023-09-10T15:15:06.410Z,31.44
2023-09-10T15:17:32.960Z,31.34
2023-09-10T15:19:59.428Z,31.31
2023-09-10T15:22:25.805Z,31.26
2023-09-10T15:24:52.488Z,31.23
2023-09-10T15:27:18.983Z,31.22
2023-09-10T15:29:45.370Z,31.22
2023-09-10T15:32:11.865Z,31.24
2023-09-10T15:34:38.336Z,31.24
2023-09-10T15:37:05.115Z,31.18
2023-09-10T15:39:32.687Z,31.10
2023-09-10T15:41:59.144Z,31.07
2023-09-10T15:44:26.391Z,31.12
2023-09-10T15:46:52.973Z,31.12
2023-09-10T15:49:19.750Z,31.18
2023-09-10T15:51:46.413Z,31.20
2023-09-10T15:54:14.144Z,31.17
2023-09-10T15:56:40.637Z,31.14
2023-09-10T15:59:07.072Z,31.18
2023-09-10T16:01:33.553Z,31.21
2023-09-10T16:04:00.104Z,31.19
2023-09-10T16:06:26.647Z,31.15
2023-09-10T16:08:53.055Z,31.08
2023-09-10T16:11:19.674Z,31.01
2023-09-10T16:13:46.104Z,30.94
2023-09-10T16:16:12.527Z,30.89
2023-09-10T16:18:39.230Z,30.83
2023-09-10T16:21:05.689Z,30.76
2023-09-10T16:23:34.519Z,30.67
2023-09-10T16:26:01.860Z,30.58
2023-09-10T16:28:28.350Z,30.50
2023-09-10T16:30:54.862Z,30.46
2023-09-10T16:33:21.260Z,30.39
2023-09-10T16:35:47.663Z,30.29
2023-09-10T16:38:14.340Z,30.24
2023-09-10T16:40:40.936Z,30.15
2023-09-10T16:43:07.343Z,29.98
2023-09-10T16:45:33.797Z,29.84
2023-09-10T16:48:01.562Z,29.76
2023-09-10T16:50:28.100Z,29.70
2023-09-10T16:52:54.590Z,29.58
2023-09-10T16:55:20.963Z,29.53
2023-09-10T16:57:47.369Z,29.42
2023-09-10T17:00:14.198Z,29.31
2023-09-10T17:02:40.795Z,29.21
2023-09-10T17:05:07.916Z,29.13
2023-09-10T17:07:36.235Z,29.05
2023-09-10T17:10:03.390Z,28.97
2023-09-10T17:12:29.773Z,28.87
2023-09-10T17:14:56.570Z,28.76
2023-09-10T17:17:23.126Z,28.65
2023-09-10T17:19:49.501Z,28.58
2023-09-10T17:22:15.976Z,28.48
2023-09-10T17:24:42.385Z,28.40
2023-09-10T17:27:08.759Z,28.27
2023-09-10T17:29:35.248Z,28.18
2023-09-10T17:32:02.050Z,28.05
2023-09-10T17:34:28.552Z,27.92
2023-09-10T17:39:35.254Z,27.68
2023-09-10T17:42:01.675Z,27.61
2023-09-10T17:44:28.150Z,27.55
2023-09-10T17:46:58.184Z,27.46
2023-09-10T17:49:24.619Z,27.35
2023-09-10T17:51:51.677Z,27.25
2023-09-10T17:54:18.033Z,27.12
2023-09-10T17:56:44.605Z,26.98
2023-09-10T17:59:11.119Z,26.85
2023-09-10T18:01:37.591Z,26.76
2023-09-10T18:04:04.391Z,26.63
2023-09-10T18:06:30.894Z,26.49
2023-09-10T18:08:57.516Z,26.39
2023-09-10T18:11:25.314Z,26.27
2023-09-10T18:13:51.800Z,26.13
2023-09-10T18:16:18.161Z,26.01
2023-09-10T18:18:44.650Z,25.88
2023-09-10T18:21:11.212Z,25.78
2023-09-10T18:23:38.016Z,25.68
2023-09-10T18:26:05.904Z,25.57
2023-09-10T18:28:32.360Z,25.48
2023-09-10T18:31:06.693Z,25.37
2023-09-10T18:33:37.918Z,25.27
2023-09-10T18:36:05.547Z,25.17
2023-09-10T18:38:41.620Z,25.09
2023-09-10T18:41:08.092Z,24.96
2023-09-10T18:43:35.000Z,24.88
2023-09-10T18:46:01.471Z,24.82
2023-09-10T18:48:27.919Z,24.76
2023-09-10T18:50:54.501Z,24.70
2023-09-10T18:53:21.576Z,24.67
2023-09-10T18:55:48.150Z,24.61
2023-09-10T18:58:14.521Z,24.54
2023-09-10T19:00:41.086Z,24.52
2023-09-10T19:03:07.658Z,24.50
2023-09-10T19:05:34.192Z,24.40
2023-09-10T19:08:00.675Z,24.27
2023-09-10T19:10:27.089Z,24.18
2023-09-10T19:12:53.523Z,24.16
2023-09-10T19:15:19.956Z,24.16
2023-09-10T19:17:46.470Z,24.13
2023-09-10T19:20:13.009Z,24.09
2023-09-10T19:22:39.554Z,24.05
2023-09-10T19:25:06.399Z,23.98
2023-09-10T19:27:32.866Z,23.88
2023-09-10T19:29:59.478Z,23.81
2023-09-10T19:32:26.067Z,23.72
2023-09-10T19:34:52.559Z,23.65
2023-09-10T19:37:22.374Z,23.58
2023-09-10T19:39:48.787Z,23.49
2023-09-10T19:42:15.200Z,23.43
2023-09-10T19:44:42.822Z,23.37
2023-09-10T19:47:09.400Z,23.34
2023-09-10T19:49:35.966Z,23.31
2023-09-10T19:52:02.364Z,23.30
2023-09-10T19:54:28.797Z,23.29
2023-09-10T19:56:55.220Z,23.27
2023-09-10T19:59:21.737Z,23.24
2023-09-10T20:01:48.244Z,23.18
2023-09-10T20:04:14.919Z,23.14
2023-09-10T20:06:43.184Z,23.09
2023-09-10T20:09:10.169Z,23.04
2023-09-10T20:11:37.697Z,23.00
2023-09-10T20:14:04.527Z,22.95
2023-09-10T20:16:31.006Z,22.93
2023-09-10T20:18:57.543Z,22.89
2023-09-10T20:21:24.353Z,22.81
2023-09-10T20:23:50.973Z,22.78
2023-09-10T20:26:17.472Z,22.78
2023-09-10T20:28:44.074Z,22.75
2023-09-10T20:31:10.624Z,22.72
2023-09-10T20:33:37.082Z,22.66
2023-09-10T20:36:08.908Z,22.62
2023-09-10T20:38:35.804Z,22.55
2023-09-10T20:41:17.046Z,22.48
2023-09-10T20:43:44.168Z,22.33
2023-09-10T20:46:12.350Z,22.24
2023-09-10T20:48:39.033Z,22.17
2023-09-10T20:51:07.819Z,22.12
2023-09-10T20:53:35.777Z,22.12
2023-09-10T20:56:02.405Z,22.11
2023-09-10T20:58:28.930Z,22.11
2023-09-10T21:00:55.438Z,22.09
2023-09-10T21:03:28.991Z,22.07
2023-09-10T21:06:08.160Z,22.04
2023-09-10T21:08:34.693Z,22.03
2023-09-10T21:11:07.314Z,22.01
2023-09-10T21:13:33.755Z,22.01
2023-09-10T21:16:00.262Z,21.97
2023-09-10T21:18:28.454Z,21.92
2023-09-10T21:20:55.113Z,21.89
2023-09-10T21:23:22.689Z,21.85
2023-09-10T21:25:49.250Z,21.79
2023-09-10T21:28:15.648Z,21.73
2023-09-10T21:30:42.076Z,21.66
2023-09-10T21:33:08.761Z,21.58
2023-09-10T21:35:35.272Z,21.54
2023-09-10T21:38:01.711Z,21.53
2023-09-10T21:40:28.162Z,21.54
2023-09-10T21:42:54.636Z,21.50
2023-09-10T21:45:21.033Z,21.48
2023-09-10T21:47:47.472Z,21.47
2023-09-10T21:50:14.048Z,21.45
2023-09-10T21:52:41.047Z,21.43
2023-09-10T21:55:07.946Z,21.42
2023-09-10T21:57:34.422Z,21.41
2023-09-10T22:00:00.923Z,21.40
2023-09-10T22:02:27.438Z,21.38
2023-09-10T22:04:53.922Z,21.35
2023-09-10T22:07:20.384Z,21.36
2023-09-10T22:09:46.938Z,21.33
2023-09-10T22:12:13.448Z,21.31
2023-09-10T22:14:39.953Z,21.29
2023-09-10T22:17:06.440Z,21.28
2023-09-10T22:19:32.890Z,21.27
2023-09-10T22:21:59.317Z,21.25
2023-09-10T22:24:25.680Z,21.19
2023-09-10T22:26:52.219Z,21.11
2023-09-10T22:29:18.726Z,21.06
2023-09-10T22:31:45.206Z,21.05
2023-09-10T22:34:11.627Z,21.04
2023-09-10T22:36:39.143Z,21.05
2023-09-10T22:39:06.748Z,21.04
2023-09-10T22:41:33.273Z,21.02
2023-09-10T22:43:59.788Z,21.00
2023-09-10T22:46:28.116Z,21.01
2023-09-10T22:48:54.490Z,21.00
2023-09-10T22:51:20.898Z,20.96
2023-09-10T22:53:51.540Z,20.88
2023-09-10T22:56:18.909Z,20.81
2023-09-10T22:58:47.646Z,20.76
2023-09-10T23:01:15.800Z,20.74
2023-09-10T23:03:42.444Z,20.71
2023-09-10T23:06:09.169Z,20.70
2023-09-10T23:08:38.975Z,20.71
2023-09-10T23:11:06.532Z,20.68
2023-09-10T23:13:33.172Z,20.69
2023-09-10T23:15:59.931Z,20.66
2023-09-10T23:18:26.582Z,20.66
2023-09-10T23:20:53.069Z,20.61
2023-09-10T23:23:19.553Z,20.57
2023-09-10T23:25:45.968Z,20.55
2023-09-10T23:28:14.126Z,20.54
2023-09-10T23:30:40.524Z,20.52
2023-09-10T23:33:07.263Z,20.49
2023-09-10T23:35:35.749Z,20.50
2023-09-10T23:38:02.285Z,20.49
2023-09-10T23:40:28.653Z,20.49
2023-09-10T23:42:55.022Z,20.47
2023-09-10T23:45:21.393Z,20.44
2023-09-10T23:47:47.894Z,20.42
2023-09-10T23:50:14.357Z,20.40
2023-09-10T23:52:40.734Z,20.38
2023-09-10T23:55:08.487Z,20.34
2023-09-10T23:57:35.054Z,20.32
